createdAt,value
2019-05-14T00:01:08.347Z,1.77
2019-05-14T00:03:37.258Z,1.50
2019-05-14T00:06:04.871Z,1.30
2019-05-14T00:08:32.471Z,1.47
2019-05-14T00:11:01.459Z,1.30
2019-05-14T00:13:29.202Z,1.47
2019-05-14T00:15:57.022Z,1.60
2019-05-14T00:18:25.281Z,1.63
2019-05-14T00:20:53.509Z,1.60
2019-05-14T00:23:21.702Z,1.23
2019-05-14T00:25:49.521Z,1.60
2019-05-14T00:28:17.084Z,1.30
2019-05-14T00:30:44.775Z,1.57
2019-05-14T00:33:12.606Z,1.67
2019-05-14T00:35:41.351Z,1.70
2019-05-14T00:38:09.217Z,1.60
2019-05-14T00:40:37.137Z,1.43
2019-05-14T00:43:04.924Z,1.57
2019-05-14T00:45:32.994Z,1.63
2019-05-14T00:48:01.526Z,1.57
2019-05-14T00:50:31.529Z,1.23
2019-05-14T00:52:59.031Z,2.50
2019-05-14T00:55:26.251Z,1.63
2019-05-14T00:57:54.063Z,1.90
2019-05-14T01:00:22.161Z,2.00
2019-05-14T01:02:51.808Z,1.83
2019-05-14T01:05:21.388Z,1.27
2019-05-14T01:07:51.220Z,1.70
2019-05-14T01:10:18.724Z,2.17
2019-05-14T01:12:46.255Z,1.70
2019-05-14T01:15:14.394Z,1.33
2019-05-14T01:17:42.273Z,1.47
2019-05-14T01:20:12.304Z,1.47
2019-05-14T01:22:42.157Z,1.63
2019-05-14T01:25:11.812Z,1.60
2019-05-14T01:27:41.119Z,2.07
2019-05-14T01:30:08.661Z,1.80
2019-05-14T01:32:36.100Z,1.93
2019-05-14T01:35:03.727Z,1.67
2019-05-14T01:37:31.300Z,1.90
2019-05-14T01:40:01.033Z,1.60
2019-05-14T01:42:28.549Z,1.53
2019-05-14T01:44:56.151Z,1.50
2019-05-14T01:47:24.345Z,1.60
2019-05-14T01:49:51.982Z,1.60
2019-05-14T01:52:21.744Z,1.30
2019-05-14T01:54:51.568Z,2.03
2019-05-14T01:57:19.035Z,2.00
2019-05-14T01:59:47.164Z,2.03
2019-05-14T02:02:14.727Z,2.13
2019-05-14T02:04:42.960Z,1.53
2019-05-14T02:07:11.784Z,1.60
2019-05-14T02:09:41.785Z,1.70
2019-05-14T02:12:11.621Z,2.10
2019-05-14T02:14:42.135Z,1.40
2019-05-14T02:17:08.877Z,1.57
2019-05-14T02:19:37.357Z,1.80
2019-05-14T02:22:08.366Z,2.10
2019-05-14T02:24:36.247Z,1.67
2019-05-14T02:27:03.989Z,1.67
2019-05-14T02:29:32.331Z,2.00
2019-05-14T02:32:00.037Z,1.60
2019-05-14T02:34:29.937Z,1.87
2019-05-14T02:37:00.197Z,1.50
2019-05-14T02:39:29.008Z,1.50
2019-05-14T02:41:58.764Z,2.30
2019-05-14T02:44:25.665Z,1.80
2019-05-14T02:46:53.286Z,1.97
2019-05-14T02:49:20.678Z,1.57
2019-05-14T02:51:50.378Z,1.50
2019-05-14T02:54:20.393Z,2.20
2019-05-14T02:56:49.572Z,1.80
2019-05-14T02:59:19.672Z,2.03
2019-05-14T03:01:50.262Z,2.00
2019-05-14T03:04:19.738Z,1.77
2019-05-14T03:06:49.861Z,1.50
2019-05-14T03:09:20.460Z,2.03
2019-05-14T03:11:48.592Z,2.30
2019-05-14T03:14:19.320Z,1.60
2019-05-14T03:16:49.322Z,2.50
2019-05-14T03:19:19.240Z,2.20
2019-05-14T03:21:45.958Z,1.93
2019-05-14T03:24:13.565Z,2.57
2019-05-14T03:26:41.568Z,2.73
2019-05-14T03:29:10.149Z,2.50
2019-05-14T03:31:42.847Z,2.47
2019-05-14T03:34:13.404Z,2.70
2019-05-14T03:36:43.029Z,2.10
2019-05-14T03:39:10.537Z,3.73
2019-05-14T03:41:39.741Z,3.13
2019-05-14T03:44:09.947Z,3.40
2019-05-14T03:46:45.963Z,3.20
2019-05-14T03:49:09.286Z,3.43
2019-05-14T03:51:40.312Z,3.73
2019-05-14T03:54:12.444Z,2.87
2019-05-14T03:56:39.502Z,2.70
2019-05-14T03:59:09.610Z,3.30
2019-05-14T04:01:40.109Z,3.43
2019-05-14T04:04:10.226Z,3.60
2019-05-14T04:06:40.329Z,3.30
2019-05-14T04:09:09.683Z,2.97
2019-05-14T04:11:41.372Z,2.63
2019-05-14T04:14:13.091Z,4.00
2019-05-14T04:16:59.869Z,3.87
2019-05-14T04:19:18.835Z,3.40
2019-05-14T04:21:50.642Z,3.87
2019-05-14T04:24:22.443Z,3.07
2019-05-14T04:27:02.114Z,3.50
2019-05-14T04:29:23.252Z,3.37
2019-05-14T04:31:52.950Z,4.07
2019-05-14T04:34:22.121Z,3.67
2019-05-14T04:36:52.698Z,3.40
2019-05-14T04:39:21.000Z,3.30
2019-05-14T04:42:00.972Z,3.03
2019-05-14T04:44:29.830Z,3.20
2019-05-14T04:47:00.077Z,3.83
2019-05-14T04:49:29.719Z,3.60
2019-05-14T04:51:59.490Z,3.83
2019-05-14T04:54:30.229Z,3.50
2019-05-14T04:57:00.010Z,3.60
2019-05-14T04:59:29.911Z,3.37
2019-05-14T05:02:00.212Z,3.60
2019-05-14T05:04:29.958Z,3.23
2019-05-14T05:06:59.205Z,3.80
2019-05-14T05:09:29.303Z,8.37
2019-05-14T05:11:59.763Z,5.40
2019-05-14T05:14:29.455Z,4.23
2019-05-14T05:16:59.801Z,4.00
2019-05-14T05:19:29.011Z,3.57
2019-05-14T05:21:58.691Z,2.63
2019-05-14T05:24:28.720Z,3.77
2019-05-14T05:26:58.544Z,3.90
2019-05-14T05:29:28.413Z,3.07
2019-05-14T05:31:55.942Z,3.53
2019-05-14T05:34:24.265Z,3.10
2019-05-14T05:36:52.832Z,3.00
2019-05-14T05:39:21.651Z,3.33
2019-05-14T05:41:49.665Z,3.20
2019-05-14T05:44:18.811Z,3.10
2019-05-14T05:46:49.165Z,17.90
2019-05-14T05:49:18.597Z,51.00
2019-05-14T05:51:48.341Z,13.67
2019-05-14T05:54:18.590Z,9.00
2019-05-14T05:56:48.169Z,5.57
2019-05-14T05:59:18.960Z,4.67
2019-05-14T06:01:50.250Z,3.80
2019-05-14T06:04:18.342Z,3.60
2019-05-14T06:06:48.025Z,3.50
2019-05-14T06:09:15.449Z,3.33
2019-05-14T06:11:43.520Z,3.93
2019-05-14T06:14:11.480Z,3.53
2019-05-14T06:16:40.018Z,2.90
2019-05-14T06:19:08.350Z,3.07
2019-05-14T06:21:39.873Z,31.50
2019-05-14T06:24:09.021Z,31.97
2019-05-14T06:26:38.445Z,14.90
2019-05-14T06:29:08.190Z,7.27
2019-05-14T06:31:38.435Z,3.40
2019-05-14T06:34:09.488Z,3.10
2019-05-14T06:36:39.524Z,2.87
2019-05-14T06:39:09.102Z,3.20
2019-05-14T06:41:42.419Z,2.40
2019-05-14T06:44:09.039Z,3.13
2019-05-14T06:46:42.492Z,2.70
2019-05-14T06:49:11.969Z,2.30
2019-05-14T06:51:39.730Z,3.00
2019-05-14T06:54:09.216Z,2.00
2019-05-14T06:56:38.526Z,2.80
2019-05-14T06:59:08.979Z,3.30
2019-05-14T07:01:38.415Z,3.20
2019-05-14T07:04:08.794Z,3.07
2019-05-14T07:06:39.085Z,3.70
2019-05-14T07:09:08.904Z,3.00
2019-05-14T07:11:38.637Z,22.10
2019-05-14T07:14:11.360Z,19.37
2019-05-14T07:16:38.940Z,12.30
2019-05-14T07:19:09.483Z,6.57
2019-05-14T07:21:38.378Z,3.33
2019-05-14T07:24:08.771Z,2.93
2019-05-14T07:26:38.872Z,2.67
2019-05-14T07:29:11.234Z,3.20
2019-05-14T07:31:38.493Z,2.93
2019-05-14T07:34:09.095Z,3.20
2019-05-14T07:36:38.700Z,2.50
2019-05-14T07:39:09.282Z,2.90
2019-05-14T07:41:39.081Z,2.90
2019-05-14T07:44:09.232Z,2.43
2019-05-14T07:46:39.002Z,2.30
2019-05-14T07:49:10.905Z,2.60
2019-05-14T07:51:38.839Z,3.40
2019-05-14T07:54:08.347Z,3.20
2019-05-14T07:56:38.268Z,2.77
2019-05-14T07:59:05.701Z,2.00
2019-05-14T08:01:33.312Z,3.03
2019-05-14T08:04:01.501Z,2.73
2019-05-14T08:06:29.277Z,3.30
2019-05-14T08:08:59.241Z,2.33
2019-05-14T08:11:28.044Z,2.77
2019-05-14T08:13:59.341Z,2.07
2019-05-14T08:16:28.783Z,2.63
2019-05-14T08:18:56.464Z,2.73
2019-05-14T08:21:24.554Z,2.37
2019-05-14T08:23:52.656Z,3.77
2019-05-14T08:26:20.678Z,2.83
2019-05-14T08:28:48.896Z,3.60
2019-05-14T08:31:18.715Z,3.00
2019-05-14T08:33:48.796Z,2.80
2019-05-14T08:36:18.180Z,2.60
2019-05-14T08:38:45.570Z,2.77
2019-05-14T08:41:19.726Z,2.73
2019-05-14T08:43:48.979Z,3.40
2019-05-14T08:46:19.228Z,3.40
2019-05-14T08:48:46.260Z,3.50
2019-05-14T08:51:14.624Z,4.00
2019-05-14T08:53:42.715Z,3.50
2019-05-14T08:56:13.742Z,4.07
2019-05-14T08:58:41.579Z,3.67
2019-05-14T09:01:11.671Z,4.30
2019-05-14T09:03:39.706Z,3.97
2019-05-14T09:06:09.102Z,3.57
2019-05-14T09:08:40.235Z,4.30
2019-05-14T09:11:09.824Z,3.70
2019-05-14T09:13:38.306Z,4.00
2019-05-14T09:16:09.019Z,4.80
2019-05-14T09:18:38.259Z,4.20
2019-05-14T09:21:05.518Z,3.50
2019-05-14T09:23:33.431Z,3.80
2019-05-14T09:26:02.839Z,3.20
2019-05-14T09:28:31.377Z,3.73
2019-05-14T09:30:59.819Z,3.60
2019-05-14T09:33:29.617Z,2.63
2019-05-14T09:36:11.055Z,2.67
2019-05-14T09:38:29.141Z,2.70
2019-05-14T09:41:08.066Z,4.13
2019-05-14T09:43:28.427Z,2.87
2019-05-14T09:45:55.505Z,2.40
2019-05-14T09:48:23.212Z,2.50
2019-05-14T09:50:51.032Z,1.93
2019-05-14T09:53:19.105Z,2.60
2019-05-14T09:55:48.925Z,3.20
2019-05-14T09:58:19.586Z,6.90
2019-05-14T10:00:48.324Z,14.53
2019-05-14T10:03:15.360Z,8.77
2019-05-14T10:05:43.391Z,3.73
2019-05-14T10:08:11.970Z,2.97
2019-05-14T10:10:40.084Z,3.27
2019-05-14T10:13:09.731Z,2.10
2019-05-14T10:15:39.703Z,2.40
2019-05-14T10:18:11.661Z,2.73
2019-05-14T10:20:45.172Z,2.50
2019-05-14T10:23:09.269Z,2.20
2019-05-14T10:25:40.211Z,2.00
2019-05-14T10:28:08.619Z,2.33
2019-05-14T10:30:37.112Z,2.10
2019-05-14T10:33:10.399Z,1.93
2019-05-14T10:35:34.481Z,2.17
2019-05-14T10:38:02.975Z,2.17
2019-05-14T10:40:30.633Z,2.37
2019-05-14T10:42:58.501Z,2.33
2019-05-14T10:45:28.761Z,1.73
2019-05-14T10:47:58.581Z,1.90
2019-05-14T10:50:28.806Z,4.17
2019-05-14T10:52:56.050Z,30.50
2019-05-14T10:55:24.528Z,13.03
2019-05-14T10:57:54.408Z,7.40
2019-05-14T11:00:22.074Z,5.17
2019-05-14T11:02:49.545Z,3.97
2019-05-14T11:05:18.753Z,2.90
2019-05-14T11:07:48.222Z,2.80
2019-05-14T11:10:19.813Z,2.10
2019-05-14T11:12:50.123Z,2.50
2019-05-14T11:15:19.148Z,2.00
2019-05-14T11:17:48.749Z,1.97
2019-05-14T11:20:19.220Z,2.80
2019-05-14T11:22:49.003Z,1.93
2019-05-14T11:25:19.428Z,1.80
2019-05-14T11:27:49.137Z,1.80
2019-05-14T11:30:19.044Z,1.80
2019-05-14T11:32:49.044Z,3.10
2019-05-14T11:35:18.975Z,2.30
2019-05-14T11:37:47.880Z,2.07
2019-05-14T11:40:18.746Z,2.20
2019-05-14T11:42:46.061Z,2.03
2019-05-14T11:45:14.124Z,1.87
2019-05-14T11:47:41.836Z,2.10
2019-05-14T11:50:11.093Z,2.00
2019-05-14T11:52:38.913Z,1.60
2019-05-14T11:55:09.062Z,1.53
2019-05-14T11:57:37.545Z,1.20
2019-05-14T12:00:08.491Z,1.50
2019-05-14T12:02:38.554Z,1.83
2019-05-14T12:05:08.863Z,1.80
2019-05-14T12:07:38.808Z,1.90
2019-05-14T12:10:10.248Z,1.57
2019-05-14T12:12:38.031Z,1.77
2019-05-14T12:15:06.149Z,1.77
2019-05-14T12:17:34.579Z,2.53
2019-05-14T12:20:02.344Z,5.20
2019-05-14T12:22:30.093Z,13.57
2019-05-14T12:24:58.446Z,8.23
2019-05-14T12:27:26.499Z,4.90
2019-05-14T12:29:54.530Z,2.73
2019-05-14T12:32:22.176Z,2.30
2019-05-14T12:34:50.082Z,2.50
2019-05-14T12:37:18.703Z,2.03
2019-05-14T12:39:46.820Z,2.43
2019-05-14T12:42:14.787Z,2.00
2019-05-14T12:44:42.474Z,2.03
2019-05-14T12:47:09.896Z,1.60
2019-05-14T12:49:38.804Z,2.03
2019-05-14T12:52:20.990Z,1.63
2019-05-14T12:54:38.603Z,1.93
2019-05-14T12:57:05.461Z,2.00
2019-05-14T12:59:33.546Z,1.70
2019-05-14T13:02:01.995Z,1.80
2019-05-14T13:04:29.785Z,1.80
2019-05-14T13:06:59.708Z,1.73
2019-05-14T13:09:27.562Z,1.90
2019-05-14T13:11:55.328Z,1.80
2019-05-14T13:14:23.068Z,2.00
2019-05-14T13:16:54.456Z,2.80
2019-05-14T13:19:21.173Z,2.40
2019-05-14T13:21:59.380Z,1.90
2019-05-14T13:24:18.836Z,1.97
2019-05-14T13:26:49.187Z,1.70
2019-05-14T13:29:19.133Z,1.50
2019-05-14T13:31:46.245Z,1.80
2019-05-14T13:34:13.742Z,2.30
2019-05-14T13:36:44.791Z,2.00
2019-05-14T13:39:11.385Z,1.83
2019-05-14T13:41:41.827Z,2.10
2019-05-14T13:44:22.779Z,2.17
2019-05-14T13:46:39.265Z,2.13
2019-05-14T13:49:07.141Z,1.90
2019-05-14T13:51:35.114Z,1.90
2019-05-14T13:54:03.509Z,1.63
2019-05-14T13:56:32.113Z,1.60
2019-05-14T13:59:00.507Z,2.20
2019-05-14T14:01:29.781Z,8.47
2019-05-14T14:04:10.305Z,24.70
2019-05-14T14:06:28.363Z,14.13
2019-05-14T14:08:59.099Z,8.43
2019-05-14T14:11:28.617Z,9.83
2019-05-14T14:13:58.409Z,13.10
2019-05-14T14:16:28.379Z,6.53
2019-05-14T14:18:55.983Z,4.70
2019-05-14T14:21:24.531Z,4.00
2019-05-14T14:23:52.140Z,2.57
2019-05-14T14:26:19.997Z,3.60
2019-05-14T14:28:49.257Z,2.93
2019-05-14T14:31:18.911Z,2.90
2019-05-14T14:33:48.758Z,2.20
2019-05-14T14:36:20.015Z,2.10
2019-05-14T14:38:49.319Z,2.30
2019-05-14T14:41:16.112Z,2.00
2019-05-14T14:43:44.649Z,1.97
2019-05-14T14:46:14.256Z,2.10
2019-05-14T14:48:43.692Z,2.10
2019-05-14T14:51:11.643Z,2.10
2019-05-14T14:53:52.480Z,2.70
2019-05-14T14:56:09.922Z,3.20
2019-05-14T14:58:39.190Z,10.13
2019-05-14T15:01:09.097Z,12.67
2019-05-14T15:03:37.026Z,26.90
2019-05-14T15:06:09.293Z,4.70
2019-05-14T15:08:35.494Z,3.13
2019-05-14T15:11:03.048Z,2.07
2019-05-14T15:13:31.059Z,1.40
2019-05-14T15:16:01.144Z,1.50
2019-05-14T15:18:28.923Z,2.50
2019-05-14T15:20:58.860Z,2.30
2019-05-14T15:23:28.606Z,2.30
2019-05-14T15:25:58.950Z,1.50
2019-05-14T15:28:26.884Z,2.17
2019-05-14T15:30:55.875Z,1.87
2019-05-14T15:33:29.233Z,1.90
2019-05-14T15:35:58.128Z,1.80
2019-05-14T15:38:30.072Z,1.20
2019-05-14T15:40:55.605Z,1.60
2019-05-14T15:43:24.027Z,1.50
2019-05-14T15:45:52.324Z,1.70
2019-05-14T15:48:20.767Z,38.50
2019-05-14T15:50:50.166Z,18.90
2019-05-14T15:53:19.491Z,8.63
2019-05-14T15:55:49.045Z,4.97
2019-05-14T15:58:21.261Z,2.80
2019-05-14T16:00:46.452Z,2.47
2019-05-14T16:03:14.355Z,2.33
2019-05-14T16:05:42.868Z,2.20
2019-05-14T16:08:10.963Z,2.33
2019-05-14T16:10:39.867Z,2.53
2019-05-14T16:13:08.928Z,2.40
2019-05-14T16:15:38.933Z,2.17
2019-05-14T16:18:15.430Z,1.67
2019-05-14T16:20:39.193Z,1.83
2019-05-14T16:23:10.533Z,1.23
2019-05-14T16:25:38.040Z,1.67
2019-05-14T16:28:08.554Z,1.37
2019-05-14T16:30:35.975Z,1.70
2019-05-14T16:33:09.346Z,1.53
2019-05-14T16:35:39.110Z,1.60
2019-05-14T16:38:08.378Z,1.80
2019-05-14T16:40:39.266Z,1.53
2019-05-14T16:43:06.201Z,1.70
2019-05-14T16:45:34.256Z,1.60
2019-05-14T16:48:02.417Z,1.60
2019-05-14T16:50:30.224Z,1.37
2019-05-14T16:52:58.870Z,60.53
2019-05-14T16:55:30.271Z,52.97
2019-05-14T16:57:58.265Z,30.90
2019-05-14T17:00:25.930Z,13.67
2019-05-14T17:02:54.198Z,9.17
2019-05-14T17:05:22.547Z,5.50
2019-05-14T17:07:50.347Z,3.70
2019-05-14T17:10:18.273Z,2.53
2019-05-14T17:12:53.566Z,2.13
2019-05-14T17:15:18.120Z,1.80
2019-05-14T17:17:48.254Z,1.20
2019-05-14T17:20:15.992Z,1.60
2019-05-14T17:22:44.112Z,1.30
2019-05-14T17:25:26.330Z,1.20
2019-05-14T17:27:41.998Z,1.30
2019-05-14T17:30:10.633Z,1.20
2019-05-14T17:32:39.468Z,1.20
2019-05-14T17:35:08.286Z,1.23
2019-05-14T17:37:39.167Z,1.63
2019-05-14T17:40:09.431Z,1.77
2019-05-14T17:42:39.365Z,1.50
2019-05-14T17:45:08.506Z,1.50
2019-05-14T17:47:38.786Z,1.33
2019-05-14T17:50:07.194Z,1.23
2019-05-14T17:52:43.316Z,1.53
2019-05-14T17:55:12.171Z,1.27
2019-05-14T17:57:45.192Z,1.20
2019-05-14T18:00:09.478Z,1.30
2019-05-14T18:02:37.623Z,15.40
2019-05-14T18:05:05.517Z,23.20
2019-05-14T18:07:33.545Z,15.20
2019-05-14T18:10:01.436Z,6.23
2019-05-14T18:12:30.564Z,4.80
2019-05-14T18:14:59.615Z,2.30
2019-05-14T18:17:29.568Z,2.00
2019-05-14T18:19:58.901Z,1.60
2019-05-14T18:22:28.640Z,1.50
2019-05-14T18:24:59.107Z,1.60
2019-05-14T18:27:29.221Z,1.30
2019-05-14T18:29:59.099Z,1.10
2019-05-14T18:32:26.283Z,1.30
2019-05-14T18:34:54.589Z,1.60
2019-05-14T18:37:22.794Z,1.30
2019-05-14T18:39:50.370Z,1.20
2019-05-14T18:42:19.092Z,1.27
2019-05-14T18:44:46.626Z,1.30
2019-05-14T18:47:16.964Z,1.20
2019-05-14T18:49:44.517Z,1.37
2019-05-14T18:52:12.305Z,1.40
2019-05-14T18:54:40.058Z,1.27
2019-05-14T18:57:11.964Z,1.30
2019-05-14T18:59:39.080Z,1.23
2019-05-14T19:02:08.580Z,1.30
2019-05-14T19:04:38.205Z,1.27
2019-05-14T19:07:05.826Z,1.33
2019-05-14T19:09:33.602Z,1.50
2019-05-14T19:12:01.475Z,1.30
2019-05-14T19:14:29.655Z,1.40
2019-05-14T19:16:58.466Z,1.10
2019-05-14T19:19:29.361Z,1.33
2019-05-14T19:21:58.383Z,1.17
2019-05-14T19:24:28.671Z,1.20
2019-05-14T19:26:59.338Z,1.03
2019-05-14T19:29:28.147Z,0.90
2019-05-14T19:31:55.828Z,1.17
2019-05-14T19:34:23.579Z,1.17
2019-05-14T19:36:51.786Z,1.13
2019-05-14T19:39:19.359Z,1.30
2019-05-14T19:41:48.404Z,1.27
2019-05-14T19:44:19.068Z,1.60
2019-05-14T19:46:49.243Z,1.37
2019-05-14T19:49:18.450Z,1.73
2019-05-14T19:51:48.276Z,1.30
2019-05-14T19:54:19.185Z,1.30
2019-05-14T19:56:53.287Z,1.70
2019-05-14T19:59:19.423Z,1.20
2019-05-14T20:01:48.389Z,1.30
2019-05-14T20:04:18.122Z,1.00
2019-05-14T20:06:49.437Z,1.50
2019-05-14T20:09:18.942Z,1.33
2019-05-14T20:11:48.874Z,1.30
2019-05-14T20:14:16.269Z,1.70
2019-05-14T20:16:44.550Z,1.30
2019-05-14T20:19:12.117Z,1.20
2019-05-14T20:21:39.782Z,11.07
2019-05-14T20:24:07.663Z,6.67
2019-05-14T20:26:39.163Z,3.70
2019-05-14T20:29:08.734Z,2.53
2019-05-14T20:31:38.768Z,1.67
2019-05-14T20:34:08.344Z,1.73
2019-05-14T20:36:38.778Z,2.27
2019-05-14T20:39:08.483Z,1.60
2019-05-14T20:41:38.224Z,1.33
2019-05-14T20:44:05.881Z,1.27
2019-05-14T20:46:33.555Z,1.30
2019-05-14T20:49:01.219Z,1.70
2019-05-14T20:51:30.431Z,1.50
2019-05-14T20:53:58.145Z,1.30
2019-05-14T20:56:30.314Z,1.30
2019-05-14T20:58:58.977Z,1.30
2019-05-14T21:01:28.933Z,1.50
2019-05-14T21:03:59.267Z,1.77
2019-05-14T21:06:28.056Z,3.53
2019-05-14T21:08:55.588Z,1.63
2019-05-14T21:11:23.284Z,1.67
2019-05-14T21:13:51.231Z,1.80
2019-05-14T21:16:18.696Z,2.00
2019-05-14T21:18:48.628Z,1.53
2019-05-14T21:21:15.693Z,1.47
2019-05-14T21:23:43.043Z,1.73
2019-05-14T21:26:10.585Z,1.37
2019-05-14T21:28:39.318Z,1.40
2019-05-14T21:31:10.139Z,1.30
2019-05-14T21:33:36.437Z,1.80
2019-05-14T21:36:09.510Z,1.50
2019-05-14T21:38:37.892Z,1.70
2019-05-14T21:41:06.826Z,1.93
2019-05-14T21:43:34.631Z,1.60
2019-05-14T21:46:02.040Z,1.70
2019-05-14T21:48:30.604Z,2.50
2019-05-14T21:51:00.586Z,2.33
2019-05-14T21:53:27.598Z,2.00
2019-05-14T21:55:55.344Z,2.20
2019-05-14T21:58:23.108Z,2.13
2019-05-14T22:00:53.175Z,2.90
2019-05-14T22:03:21.088Z,2.30
2019-05-14T22:05:51.695Z,2.30
2019-05-14T22:08:18.558Z,2.00
2019-05-14T22:10:48.703Z,2.30
2019-05-14T22:13:18.066Z,2.47
2019-05-14T22:15:45.739Z,2.17
2019-05-14T22:18:17.942Z,1.87
2019-05-14T22:20:43.396Z,2.00
2019-05-14T22:23:17.877Z,2.20
2019-05-14T22:25:48.575Z,2.70
2019-05-14T22:28:16.853Z,2.07
2019-05-14T22:30:45.242Z,2.17
2019-05-14T22:33:12.990Z,2.20
2019-05-14T22:35:40.652Z,2.00
2019-05-14T22:38:08.417Z,1.80
2019-05-14T22:40:38.800Z,2.43
2019-05-14T22:43:08.815Z,2.20
2019-05-14T22:45:35.830Z,2.07
2019-05-14T22:48:04.313Z,2.07
2019-05-14T22:50:32.201Z,2.20
2019-05-14T22:52:59.931Z,2.03
2019-05-14T22:55:28.932Z,2.90
2019-05-14T22:57:59.287Z,2.20
2019-05-14T23:00:28.615Z,2.60
2019-05-14T23:02:56.507Z,2.00
2019-05-14T23:05:24.288Z,2.43
2019-05-14T23:07:51.740Z,2.30
2019-05-14T23:10:38.917Z,2.07
2019-05-14T23:13:06.504Z,2.23
2019-05-14T23:15:38.551Z,2.50
2019-05-14T23:18:08.487Z,2.70
2019-05-14T23:20:38.923Z,2.23
2019-05-14T23:23:05.758Z,2.00
2019-05-14T23:25:33.126Z,2.37
2019-05-14T23:28:01.147Z,2.30
2019-05-14T23:30:32.369Z,1.90
2019-05-14T23:33:00.307Z,2.47
2019-05-14T23:35:28.510Z,2.77
2019-05-14T23:37:56.135Z,2.00
2019-05-14T23:40:25.552Z,2.63
2019-05-14T23:42:52.922Z,2.70
2019-05-14T23:45:21.092Z,2.87
2019-05-14T23:47:49.434Z,2.50
2019-05-14T23:50:17.002Z,3.10
2019-05-14T23:52:45.086Z,2.50
2019-05-14T23:55:13.042Z,2.47
2019-05-14T23:57:41.318Z,2.60
